Time;durP1;ratioP1;P1;durP2;ratioP2;P2;SDS_P1;SDS_P2;PMS_P1;PMS_P2;Temp;Humidity;BMP_temperature;BMP_pressure;BME280_temperature;BME280_humidity;BME280_pressure;Samples;Min_cycle;Max_cycle;Signal;HPM_P1;HPM_P2
2024/02/16 00:02:27;;;;;;;7.60;7.00;;;13.90;99.90;;;;;;5148770;27;20463;-76
2024/02/16 00:04:54;;;;;;;8.30;7.50;;;13.90;99.90;;;;;;5126904;27;20558;-77
2024/02/16 00:07:22;;;;;;;7.03;6.43;;;13.90;99.90;;;;;;5117371;27;20476;-78
2024/02/16 00:09:53;;;;;;;6.70;6.10;;;13.80;99.90;;;;;;5123215;27;20457;-76
2024/02/16 00:12:25;;;;;;;7.93;7.13;;;13.80;99.90;;;;;;5122759;27;20483;-78
2024/02/16 00:14:53;;;;;;;6.40;5.77;;;13.80;99.90;;;;;;5132400;27;20529;-76
2024/02/16 00:17:21;;;;;;;7.00;6.40;;;13.80;99.90;;;;;;5136160;27;20956;-79
2024/02/16 00:19:49;;;;;;;7.67;7.07;;;13.70;99.90;;;;;;5138939;27;20523;-78
2024/02/16 00:22:16;;;;;;;7.43;6.73;;;13.70;99.90;;;;;;5156210;27;20952;-78
2024/02/16 00:24:45;;;;;;;7.13;6.53;;;13.70;99.90;;;;;;5154126;27;20463;-77
2024/02/16 00:27:13;;;;;;;7.43;6.83;;;13.70;99.90;;;;;;5154887;27;20532;-77
2024/02/16 00:29:41;;;;;;;10.93;9.87;;;13.70;99.90;;;;;;5144906;27;20591;-77
2024/02/16 00:32:08;;;;;;;9.17;8.37;;;13.70;99.90;;;;;;5132309;27;20463;-77
2024/02/16 00:35:12;;;;;;;15.27;13.77;;;13.60;99.90;;;;;;5121055;27;20466;-80
2024/02/16 00:37:40;;;;;;;12.00;10.37;;;13.50;99.90;;;;;;5122419;27;20980;-77
2024/02/16 00:40:08;;;;;;;10.67;9.57;;;13.50;99.90;;;;;;5134628;27;20825;-76
2024/02/16 00:42:35;;;;;;;12.27;11.27;;;13.50;99.90;;;;;;5134721;27;20986;-76
2024/02/16 00:45:03;;;;;;;11.33;10.33;;;13.50;99.90;;;;;;5131343;27;20468;-79
2024/02/16 00:47:30;;;;;;;12.47;11.17;;;13.50;99.90;;;;;;5135175;27;20560;-77
2024/02/16 00:50:10;;;;;;;22.27;17.40;;;13.50;99.90;;;;;;5132867;27;20517;-77
2024/02/16 00:52:40;;;;;;;19.70;17.20;;;13.40;99.90;;;;;;5134707;27;20566;-79
2024/02/16 00:55:20;;;;;;;16.80;14.87;;;13.40;99.90;;;;;;5131579;27;20459;-78
2024/02/16 00:57:48;;;;;;;15.33;12.53;;;13.40;99.90;;;;;;5133624;27;20475;-79
2024/02/16 01:00:19;;;;;;;13.50;12.17;;;13.40;99.90;;;;;;5134496;27;20474;-81
2024/02/16 01:02:47;;;;;;;15.02;13.23;;;13.40;99.90;;;;;;5132355;27;20536;-79
2024/02/16 01:05:18;;;;;;;13.83;12.53;;;13.40;99.90;;;;;;5121474;27;20407;-76
2024/02/16 01:07:48;;;;;;;13.20;11.83;;;13.30;99.90;;;;;;5123155;27;20512;-79
2024/02/16 01:10:15;;;;;;;15.10;13.63;;;13.40;99.90;;;;;;5126253;27;20924;-77
2024/02/16 01:12:43;;;;;;;13.93;12.57;;;13.40;99.90;;;;;;5122398;27;20464;-78
2024/02/16 01:15:14;;;;;;;11.63;10.63;;;13.30;99.90;;;;;;5118003;27;20481;-79
2024/02/16 01:17:48;;;;;;;12.80;11.67;;;13.30;99.90;;;;;;5118153;27;20460;-79
2024/02/16 01:20:17;;;;;;;12.57;11.27;;;13.30;99.90;;;;;;5143185;27;20460;-78
2024/02/16 01:22:47;;;;;;;13.37;12.00;;;13.20;99.90;;;;;;5119805;27;20558;-79
2024/02/16 01:25:16;;;;;;;15.17;13.70;;;13.20;99.90;;;;;;5120845;27;20818;-79
2024/02/16 01:27:44;;;;;;;16.58;14.85;;;13.20;99.90;;;;;;5133452;27;20460;-77
2024/02/16 01:30:12;;;;;;;13.50;12.20;;;13.20;99.90;;;;;;5120727;27;20272;-77
2024/02/16 01:32:40;;;;;;;12.80;11.70;;;13.20;99.90;;;;;;5134460;27;20467;-79
2024/02/16 01:35:07;;;;;;;18.60;15.13;;;13.20;99.90;;;;;;5131078;27;20546;-77
2024/02/16 01:37:36;;;;;;;36.22;28.70;;;13.20;99.90;;;;;;5133139;27;20459;-79
2024/02/16 01:40:03;;;;;;;37.70;33.37;;;13.20;99.90;;;;;;5133139;28;20279;-78
2024/02/16 01:42:31;;;;;;;32.70;28.60;;;13.10;99.90;;;;;;5136814;27;20508;-78
2024/02/16 01:44:58;;;;;;;24.00;21.60;;;13.10;99.90;;;;;;5131059;28;20460;-76
2024/02/16 01:47:25;;;;;;;15.07;13.67;;;13.10;99.90;;;;;;5133726;28;20953;-77
2024/02/16 01:49:52;;;;;;;13.20;11.90;;;13.10;99.90;;;;;;5133390;28;20960;-75
2024/02/16 01:52:22;;;;;;;12.73;11.37;;;13.10;99.90;;;;;;5132360;28;20948;-76
2024/02/16 01:54:50;;;;;;;14.07;12.77;;;13.10;99.90;;;;;;5131130;27;20475;-77
2024/02/16 01:57:17;;;;;;;13.37;11.67;;;13.00;99.90;;;;;;5112167;27;20571;-77
2024/02/16 01:59:45;;;;;;;14.65;13.05;;;13.10;99.90;;;;;;5107401;27;20456;-76
2024/02/16 02:02:12;;;;;;;17.17;12.33;;;13.10;99.90;;;;;;5128052;27;20210;-77
2024/02/16 02:04:39;;;;;;;12.57;11.27;;;13.10;99.90;;;;;;5122782;27;20524;-76
2024/02/16 02:07:13;;;;;;;13.07;11.70;;;13.10;99.90;;;;;;5133417;27;20464;-79
2024/02/16 02:09:40;;;;;;;13.88;12.57;;;13.10;99.90;;;;;;5137579;27;20458;-76
2024/02/16 02:12:09;;;;;;;14.55;13.15;;;13.10;99.90;;;;;;5137103;27;20310;-76
2024/02/16 02:14:36;;;;;;;14.15;12.38;;;13.10;99.90;;;;;;5137337;27;20221;-79
2024/02/16 02:17:04;;;;;;;14.20;12.38;;;13.10;99.90;;;;;;5137383;27;20217;-78
2024/02/16 02:19:31;;;;;;;14.30;12.95;;;13.10;99.90;;;;;;5137638;27;20659;-78
2024/02/16 02:21:58;;;;;;;13.13;11.93;;;13.10;99.90;;;;;;5137926;27;20221;-78
2024/02/16 02:24:26;;;;;;;17.55;14.38;;;13.10;99.90;;;;;;5136900;27;20473;-77
2024/02/16 02:26:54;;;;;;;15.10;13.60;;;13.10;99.90;;;;;;5137501;27;20225;-77
2024/02/16 02:29:21;;;;;;;16.37;14.70;;;13.10;99.90;;;;;;5137318;27;20221;-78
2024/02/16 02:31:49;;;;;;;14.67;13.17;;;13.10;99.90;;;;;;5137840;27;20455;-76
2024/02/16 02:34:17;;;;;;;15.57;14.17;;;13.10;99.90;;;;;;5137295;27;20562;-76
2024/02/16 02:36:44;;;;;;;15.60;14.10;;;13.00;99.90;;;;;;5137170;27;20462;-76
2024/02/16 02:39:13;;;;;;;15.73;14.30;;;13.10;99.90;;;;;;5137995;27;20796;-79
2024/02/16 02:41:41;;;;;;;17.73;15.70;;;13.10;99.90;;;;;;5137237;27;20448;-78
2024/02/16 02:44:08;;;;;;;14.80;13.30;;;13.10;99.90;;;;;;5137063;27;20464;-78
2024/02/16 02:46:36;;;;;;;16.25;14.73;;;13.10;99.90;;;;;;5135064;27;20222;-78
2024/02/16 02:49:04;;;;;;;15.67;14.00;;;13.10;99.90;;;;;;5136839;27;20287;-78
2024/02/16 02:51:31;;;;;;;15.23;13.70;;;13.00;99.90;;;;;;5136780;27;20964;-76
2024/02/16 02:53:58;;;;;;;15.30;13.77;;;13.00;99.90;;;;;;5136376;28;20363;-78
2024/02/16 02:56:25;;;;;;;15.93;14.45;;;13.10;99.90;;;;;;5136099;28;20218;-76
2024/02/16 02:58:54;;;;;;;15.75;14.10;;;13.10;99.90;;;;;;5136230;28;20218;-76
2024/02/16 03:01:21;;;;;;;16.63;14.93;;;13.10;99.90;;;;;;5136502;28;20564;-76
2024/02/16 03:03:48;;;;;;;18.10;15.27;;;13.10;99.90;;;;;;5135208;28;20256;-78
2024/02/16 03:06:19;;;;;;;16.23;14.77;;;13.10;99.90;;;;;;5136786;27;21179;-78
2024/02/16 03:08:47;;;;;;;20.67;16.58;;;13.00;99.90;;;;;;5135754;28;20448;-78
2024/02/16 03:11:14;;;;;;;15.30;13.90;;;13.00;99.90;;;;;;5136492;28;20691;-78
2024/02/16 03:13:41;;;;;;;15.32;13.85;;;13.00;99.90;;;;;;5135818;28;20463;-78
2024/02/16 03:16:17;;;;;;;15.13;13.60;;;13.00;99.90;;;;;;5136113;28;20562;-78
2024/02/16 03:18:45;;;;;;;13.97;12.50;;;13.10;99.90;;;;;;5135506;28;20528;-75
2024/02/16 03:21:16;;;;;;;14.70;13.27;;;13.10;99.90;;;;;;5134991;28;20803;-78
2024/02/16 03:23:43;;;;;;;15.93;14.23;;;13.10;99.90;;;;;;5135541;28;20229;-79
2024/02/16 03:26:20;;;;;;;15.47;13.97;;;13.10;99.90;;;;;;5136002;28;20467;-78
2024/02/16 03:28:47;;;;;;;15.77;14.10;;;13.10;99.90;;;;;;5134821;28;20802;-78
2024/02/16 03:31:24;;;;;;;15.70;14.20;;;13.20;99.90;;;;;;5134945;28;20785;-78
2024/02/16 03:33:52;;;;;;;15.80;14.10;;;13.10;99.90;;;;;;5135744;28;20463;-78
2024/02/16 03:36:22;;;;;;;14.77;13.30;;;13.00;99.90;;;;;;5135437;28;20566;-78
2024/02/16 03:38:51;;;;;;;15.98;14.43;;;13.00;99.90;;;;;;5135453;28;20230;-78
2024/02/16 03:41:20;;;;;;;15.43;13.77;;;13.10;99.90;;;;;;5135933;28;20222;-76
2024/02/16 03:43:48;;;;;;;14.57;13.07;;;13.10;99.90;;;;;;5134257;28;20229;-76
2024/02/16 03:46:15;;;;;;;16.93;14.93;;;13.10;99.90;;;;;;5136199;28;20516;-76
2024/02/16 03:48:46;;;;;;;14.37;13.07;;;13.10;99.90;;;;;;5135453;28;20534;-80
2024/02/16 03:51:15;;;;;;;14.50;13.10;;;13.10;99.90;;;;;;5015808;27;3383035;-78
2024/02/16 03:53:44;;;;;;;15.38;13.82;;;13.10;99.90;;;;;;5127055;27;20532;-80
2024/02/16 03:56:12;;;;;;;15.63;14.23;;;13.10;99.90;;;;;;5136344;27;20309;-80
2024/02/16 03:58:39;;;;;;;14.57;12.33;;;13.10;99.90;;;;;;5136288;27;20279;-76
2024/02/16 04:01:06;;;;;;;17.23;14.70;;;13.20;99.90;;;;;;5136098;27;20797;-76
2024/02/16 04:03:34;;;;;;;15.23;13.80;;;13.10;99.90;;;;;;5134906;27;20532;-78
2024/02/16 04:06:04;;;;;;;15.05;13.52;;;13.10;99.90;;;;;;5137633;27;20880;-76
2024/02/16 04:08:32;;;;;;;14.93;13.32;;;13.10;99.90;;;;;;5137520;27;20232;-78
2024/02/16 04:11:02;;;;;;;14.20;12.90;;;13.10;99.90;;;;;;5137445;27;20228;-76
2024/02/16 04:13:29;;;;;;;14.97;13.57;;;13.10;99.90;;;;;;5125273;27;20479;-79
2024/02/16 04:15:56;;;;;;;13.85;12.38;;;13.10;99.90;;;;;;5136224;27;20514;-79
2024/02/16 04:18:23;;;;;;;15.40;14.07;;;13.00;99.90;;;;;;5138037;27;20222;-78
2024/02/16 04:20:51;;;;;;;15.43;13.60;;;13.10;99.90;;;;;;5136925;27;20464;-79
2024/02/16 04:23:20;;;;;;;16.98;12.40;;;13.10;99.90;;;;;;5135657;27;20463;-79
2024/02/16 04:25:49;;;;;;;14.97;13.47;;;13.10;99.90;;;;;;5134614;27;20698;-76
2024/02/16 04:28:18;;;;;;;15.63;14.17;;;13.10;99.90;;;;;;5135799;27;20516;-79
2024/02/16 04:30:45;;;;;;;13.57;12.18;;;13.00;99.90;;;;;;5134951;27;21368;-79
2024/02/16 04:33:12;;;;;;;15.10;13.50;;;13.00;99.90;;;;;;5135295;27;20236;-79
2024/02/16 04:35:40;;;;;;;15.53;14.03;;;12.90;99.90;;;;;;5125371;27;20229;-79
2024/02/16 04:38:08;;;;;;;16.52;14.45;;;12.90;99.90;;;;;;5135152;27;20575;-77
2024/02/16 04:40:38;;;;;;;14.23;12.93;;;12.90;99.90;;;;;;5135892;27;20222;-75
2024/02/16 04:43:06;;;;;;;14.20;13.00;;;12.90;99.90;;;;;;5134838;27;20268;-78
2024/02/16 04:45:35;;;;;;;14.57;13.15;;;12.90;99.90;;;;;;5125565;27;20250;-78
2024/02/16 04:48:04;;;;;;;13.57;12.15;;;12.90;99.90;;;;;;5134716;27;20222;-76
2024/02/16 04:50:33;;;;;;;14.68;13.18;;;12.90;99.90;;;;;;5135709;27;20301;-79
2024/02/16 04:53:01;;;;;;;14.23;12.73;;;12.90;99.90;;;;;;5134555;27;20249;-79
2024/02/16 04:55:28;;;;;;;14.85;13.15;;;12.90;99.90;;;;;;5135680;27;20229;-79
2024/02/16 04:57:56;;;;;;;14.80;13.30;;;12.80;99.90;;;;;;5134553;27;20222;-79
2024/02/16 05:00:24;;;;;;;13.27;11.88;;;12.80;99.90;;;;;;5136372;27;20236;-76
2024/02/16 05:02:52;;;;;;;14.25;12.70;;;12.80;99.90;;;;;;5135132;27;20753;-76
2024/02/16 05:05:20;;;;;;;12.98;11.77;;;12.80;99.90;;;;;;5135329;27;20218;-79
2024/02/16 05:07:49;;;;;;;15.07;13.57;;;12.80;99.90;;;;;;5134836;27;20675;-76
2024/02/16 05:10:17;;;;;;;14.23;12.68;;;12.80;99.90;;;;;;5133130;27;20222;-75
2024/02/16 05:12:44;;;;;;;17.02;12.73;;;12.80;99.90;;;;;;5135143;27;20237;-80
2024/02/16 05:15:14;;;;;;;15.27;12.70;;;12.70;99.90;;;;;;5134851;27;20667;-80
2024/02/16 05:17:41;;;;;;;14.90;13.23;;;12.80;99.90;;;;;;5135523;27;20237;-77
2024/02/16 05:20:15;;;;;;;12.57;11.38;;;12.70;99.90;;;;;;5134363;27;20498;-77
2024/02/16 05:22:43;;;;;;;13.55;12.10;;;12.80;99.90;;;;;;5134837;27;20583;-80
2024/02/16 05:25:12;;;;;;;12.73;11.43;;;12.80;99.90;;;;;;5133196;27;20226;-79
2024/02/16 05:27:39;;;;;;;13.85;12.43;;;12.80;99.90;;;;;;5135224;27;20580;-79
2024/02/16 05:30:08;;;;;;;13.57;11.93;;;12.80;99.90;;;;;;5133096;27;20305;-80
2024/02/16 05:32:38;;;;;;;13.82;12.35;;;12.80;99.90;;;;;;5123911;27;20226;-77
2024/02/16 05:35:11;;;;;;;12.20;11.00;;;12.80;99.90;;;;;;5133937;27;20225;-79
2024/02/16 05:37:39;;;;;;;11.52;10.50;;;12.80;99.90;;;;;;5134192;27;20222;-77
2024/02/16 05:40:18;;;;;;;11.98;10.55;;;12.80;99.90;;;;;;5133762;27;20228;-79
2024/02/16 05:42:47;;;;;;;13.45;11.02;;;12.70;99.90;;;;;;5134645;28;20554;-77
2024/02/16 05:45:15;;;;;;;13.13;11.68;;;12.70;99.90;;;;;;5134289;28;20226;-79
2024/02/16 05:47:45;;;;;;;11.13;9.90;;;12.70;99.90;;;;;;5134330;28;20221;-77
2024/02/16 05:50:13;;;;;;;11.48;10.32;;;12.70;99.90;;;;;;5133486;28;20222;-79
2024/02/16 05:52:40;;;;;;;15.15;11.68;;;12.70;99.90;;;;;;5134426;28;20250;-77
2024/02/16 05:55:09;;;;;;;12.13;10.48;;;12.70;99.90;;;;;;5134036;28;20228;-77
2024/02/16 05:57:39;;;;;;;12.77;10.68;;;12.60;99.90;;;;;;5134099;28;20217;-79
2024/02/16 06:00:07;;;;;;;11.95;10.85;;;12.70;99.90;;;;;;5134151;28;20225;-79
2024/02/16 06:05:33;;;;;;;14.25;10.98;;;12.70;99.90;;;;;;5112742;28;20218;-79
2024/02/16 06:08:02;;;;;;;12.18;10.50;;;12.70;99.90;;;;;;5132588;28;20229;-79
2024/02/16 06:10:29;;;;;;;11.90;10.90;;;12.70;99.90;;;;;;5134249;28;20222;-79
2024/02/16 06:12:56;;;;;;;12.90;10.90;;;12.70;99.90;;;;;;5133511;28;20226;-79
2024/02/16 06:15:24;;;;;;;13.15;11.75;;;12.70;99.90;;;;;;5133889;28;20222;-79
2024/02/16 06:17:53;;;;;;;12.77;11.48;;;12.70;99.90;;;;;;5133556;28;20226;-77
2024/02/16 06:20:21;;;;;;;11.75;9.65;;;12.70;99.90;;;;;;5133851;28;20602;-79
2024/02/16 06:22:54;;;;;;;14.05;10.80;;;12.80;99.90;;;;;;5133491;28;20292;-79
2024/02/16 06:25:21;;;;;;;12.30;10.55;;;12.70;99.90;;;;;;5123714;28;20521;-79
2024/02/16 06:27:48;;;;;;;11.07;9.85;;;12.70;99.90;;;;;;5132791;28;20226;-79
2024/02/16 06:30:15;;;;;;;11.43;10.23;;;12.70;99.90;;;;;;5133022;28;20655;-79
2024/02/16 06:32:43;;;;;;;12.85;11.63;;;12.70;99.90;;;;;;5133659;28;20812;-77
2024/02/16 06:35:12;;;;;;;11.70;10.50;;;12.70;99.90;;;;;;5121513;28;21960;-77
2024/02/16 06:37:40;;;;;;;13.30;10.73;;;12.70;99.90;;;;;;5133903;28;20226;-79
2024/02/16 06:40:09;;;;;;;12.55;10.50;;;12.80;99.90;;;;;;5133109;28;20474;-79
2024/02/16 06:42:39;;;;;;;11.35;10.00;;;12.70;99.90;;;;;;5136157;27;20237;-79
2024/02/16 06:45:08;;;;;;;11.23;10.13;;;12.70;99.90;;;;;;5136945;27;20735;-79
2024/02/16 06:47:35;;;;;;;12.18;10.98;;;12.80;99.90;;;;;;5137461;27;20675;-79
2024/02/16 06:50:02;;;;;;;12.63;9.90;;;12.80;99.90;;;;;;5135939;27;20226;-79
2024/02/16 06:52:34;;;;;;;10.85;9.82;;;12.80;99.90;;;;;;5137093;27;20237;-79
2024/02/16 06:55:01;;;;;;;11.18;10.07;;;12.80;99.90;;;;;;5136758;27;20228;-77
2024/02/16 06:57:28;;;;;;;13.32;10.30;;;12.80;99.90;;;;;;5137406;27;20221;-77
2024/02/16 06:59:59;;;;;;;15.18;12.27;;;12.80;99.90;;;;;;5127041;27;20229;-77
2024/02/16 07:02:30;;;;;;;13.15;11.05;;;12.90;99.90;;;;;;5137404;27;20302;-79
2024/02/16 07:05:00;;;;;;;12.27;10.97;;;12.80;99.90;;;;;;5136163;27;20279;-79
2024/02/16 07:07:27;;;;;;;12.13;10.80;;;12.90;99.90;;;;;;5136672;27;20468;-79
2024/02/16 07:09:56;;;;;;;11.45;10.35;;;12.90;99.90;;;;;;5136758;27;20483;-79
2024/02/16 07:12:25;;;;;;;11.43;10.23;;;13.00;99.90;;;;;;5136546;27;20226;-79
2024/02/16 07:14:52;;;;;;;13.27;11.88;;;12.90;99.90;;;;;;5126028;27;20236;-79
2024/02/16 07:17:19;;;;;;;11.32;10.18;;;12.90;99.90;;;;;;5136136;27;20228;-79
2024/02/16 07:19:49;;;;;;;10.80;9.80;;;12.90;99.90;;;;;;5136937;27;20230;-77
2024/02/16 07:22:16;;;;;;;13.13;11.73;;;12.90;99.90;;;;;;5134094;27;20965;-77
2024/02/16 07:24:46;;;;;;;14.23;12.15;;;12.90;99.90;;;;;;5136986;27;20468;-77
2024/02/16 07:27:18;;;;;;;12.07;10.98;;;12.90;99.90;;;;;;5124343;27;20304;-77
2024/02/16 07:29:49;;;;;;;15.30;13.70;;;12.90;99.90;;;;;;5135989;27;20229;-77
2024/02/16 07:32:17;;;;;;;14.90;13.40;;;12.90;99.90;;;;;;5136310;27;20659;-79
2024/02/16 07:34:47;;;;;;;13.10;11.85;;;12.90;99.90;;;;;;5135500;27;20223;-79
2024/02/16 07:37:15;;;;;;;13.48;12.07;;;12.90;99.90;;;;;;5124869;27;20222;-79
2024/02/16 07:39:45;;;;;;;12.93;11.63;;;12.80;99.90;;;;;;5135739;27;20304;-79
2024/02/16 07:42:12;;;;;;;11.73;10.52;;;12.90;99.90;;;;;;5132884;27;20482;-80
2024/02/16 07:44:42;;;;;;;13.77;12.35;;;12.90;99.90;;;;;;5136685;27;20226;-79
2024/02/16 07:47:12;;;;;;;12.38;10.70;;;12.80;99.90;;;;;;5136027;27;20225;-77
2024/02/16 07:49:41;;;;;;;11.83;10.37;;;12.80;99.90;;;;;;5134206;27;20256;-77
2024/02/16 07:52:09;;;;;;;12.95;11.75;;;12.90;99.90;;;;;;5135938;27;20521;-77
2024/02/16 07:54:36;;;;;;;12.32;11.10;;;12.90;99.90;;;;;;5134285;27;20659;-77
2024/02/16 07:57:09;;;;;;;14.40;12.20;;;12.90;99.90;;;;;;5135598;27;20225;-77
2024/02/16 07:59:36;;;;;;;13.13;11.75;;;12.90;99.90;;;;;;5135119;27;20478;-77
2024/02/16 08:02:06;;;;;;;14.57;13.15;;;12.90;99.90;;;;;;5136080;27;20228;-77
2024/02/16 08:04:33;;;;;;;11.80;10.70;;;12.90;99.90;;;;;;5133312;27;20217;-77
2024/02/16 08:07:02;;;;;;;11.68;10.57;;;13.00;99.90;;;;;;5135205;27;20213;-76
2024/02/16 08:09:42;;;;;;;;;;;;;;;;;;;;;
2024/02/16 08:12:09;;;;;;;15.60;11.43;;;13.10;99.90;;;;;;5129545;27;20944;-77
2024/02/16 08:14:36;;;;;;;13.47;10.57;;;13.20;99.90;;;;;;5134595;27;20466;-76
2024/02/16 08:17:07;;;;;;;13.83;10.77;;;13.20;99.90;;;;;;5135512;27;20781;-77
2024/02/16 08:19:35;;;;;;;16.83;12.00;;;13.20;99.90;;;;;;5134323;27;20495;-77
2024/02/16 08:22:05;;;;;;;15.23;12.10;;;13.20;99.90;;;;;;5135289;27;20983;-76
2024/02/16 08:24:36;;;;;;;13.70;12.00;;;13.20;99.90;;;;;;5134958;27;20941;-76
2024/02/16 08:27:04;;;;;;;12.87;11.43;;;13.30;99.90;;;;;;5135276;27;20505;-76
2024/02/16 08:29:31;;;;;;;13.43;11.03;;;13.40;99.90;;;;;;5133809;27;20972;-76
2024/02/16 08:31:58;;;;;;;12.50;11.27;;;13.40;99.90;;;;;;5135166;27;20466;-76
2024/02/16 08:34:30;;;;;;;14.20;11.43;;;13.50;99.90;;;;;;5133280;27;20474;-77
2024/02/16 08:36:57;;;;;;;12.82;10.75;;;13.60;99.90;;;;;;5135293;27;20539;-78
2024/02/16 08:39:24;;;;;;;10.20;9.20;;;13.60;99.90;;;;;;5134809;27;20274;-76
2024/02/16 08:41:52;;;;;;;11.53;10.30;;;13.60;99.90;;;;;;5134969;27;20799;-76
2024/02/16 08:44:20;;;;;;;10.30;9.40;;;13.70;99.90;;;;;;5134895;27;20469;-76
2024/02/16 08:46:48;;;;;;;12.07;10.33;;;13.80;99.90;;;;;;5133618;27;20524;-76
2024/02/16 08:49:16;;;;;;;10.40;9.47;;;13.80;99.90;;;;;;5134613;27;20479;-78
2024/02/16 08:51:44;;;;;;;12.20;10.13;;;13.90;99.90;;;;;;5134068;27;20960;-78
2024/02/16 08:54:11;;;;;;;11.77;10.67;;;13.90;99.90;;;;;;5134836;27;20547;-78
2024/02/16 08:56:39;;;;;;;13.67;10.67;;;13.90;99.90;;;;;;5133871;27;20494;-79
2024/02/16 08:59:06;;;;;;;9.37;8.47;;;14.00;99.90;;;;;;5135112;27;20466;-76
2024/02/16 09:01:33;;;;;;;12.63;11.33;;;14.00;99.90;;;;;;5134176;27;20486;-77
2024/02/16 09:04:01;;;;;;;11.27;9.80;;;14.10;99.90;;;;;;5134520;27;20467;-79
2024/02/16 09:06:31;;;;;;;9.77;8.87;;;14.10;99.90;;;;;;5133367;27;20549;-78
2024/02/16 09:09:09;;;;;;;10.97;9.80;;;14.20;99.90;;;;;;5134735;27;20471;-78
2024/02/16 09:11:36;;;;;;;8.83;7.87;;;14.20;99.90;;;;;;5133674;27;21005;-79
2024/02/16 09:14:09;;;;;;;10.50;9.50;;;14.30;99.90;;;;;;5134071;27;20540;-78
2024/02/16 09:16:36;;;;;;;10.50;9.50;;;14.30;99.90;;;;;;5134541;27;20471;-77
2024/02/16 09:19:04;;;;;;;9.33;8.47;;;14.40;99.90;;;;;;5135457;27;20787;-77
2024/02/16 09:21:31;;;;;;;9.50;8.70;;;14.40;99.90;;;;;;5134264;27;20471;-79
2024/02/16 09:24:01;;;;;;;9.83;8.80;;;14.40;99.90;;;;;;5134225;27;20459;-79
2024/02/16 09:26:30;;;;;;;11.30;9.43;;;14.50;99.90;;;;;;5134611;27;20468;-79
2024/02/16 09:28:58;;;;;;;10.70;9.13;;;14.50;99.90;;;;;;5134128;27;20459;-79
2024/02/16 09:31:25;;;;;;;8.60;7.80;;;14.50;99.90;;;;;;5133849;27;20478;-77
2024/02/16 09:33:53;;;;;;;9.60;8.70;;;14.60;99.90;;;;;;5133287;27;20771;-79
2024/02/16 09:36:21;;;;;;;9.10;8.20;;;14.70;99.90;;;;;;5133961;27;20491;-77
2024/02/16 09:38:48;;;;;;;8.17;7.37;;;14.70;99.90;;;;;;5133665;27;20468;-78
2024/02/16 09:41:17;;;;;;;8.30;7.37;;;14.70;99.90;;;;;;5133901;27;20473;-79
2024/02/16 09:43:44;;;;;;;8.43;7.50;;;14.70;99.90;;;;;;5133462;28;20475;-79
2024/02/16 09:46:11;;;;;;;8.30;7.50;;;14.80;99.90;;;;;;5133166;28;20459;-79
2024/02/16 09:48:43;;;;;;;9.50;8.70;;;14.80;99.90;;;;;;5134048;28;20463;-79
2024/02/16 09:51:11;;;;;;;7.43;6.73;;;14.90;99.90;;;;;;5133855;28;20455;-78
2024/02/16 09:53:44;;;;;;;8.73;6.97;;;15.00;99.90;;;;;;5133098;28;21034;-79
2024/02/16 09:56:11;;;;;;;7.37;6.67;;;15.00;99.90;;;;;;5123431;28;20981;-79
2024/02/16 09:58:40;;;;;;;9.53;7.87;;;15.10;99.90;;;;;;5132782;28;20499;-77
2024/02/16 10:01:07;;;;;;;6.57;5.83;;;15.20;99.90;;;;;;5134121;28;20970;-79
2024/02/16 10:03:34;;;;;;;6.27;5.63;;;15.20;99.90;;;;;;5133698;28;20494;-77
2024/02/16 10:06:22;;;;;;;8.90;5.93;;;15.20;99.90;;;;;;5132418;28;20483;-79
2024/02/16 10:08:52;;;;;;;6.60;5.47;;;15.30;99.90;;;;;;5133321;28;20532;-79
2024/02/16 10:11:20;;;;;;;6.37;5.63;;;15.30;99.90;;;;;;5133612;28;20487;-79
2024/02/16 10:13:58;;;;;;;6.80;6.10;;;15.40;99.90;;;;;;5122802;28;20593;-79
2024/02/16 10:16:27;;;;;;;8.50;7.60;;;15.40;99.90;;;;;;5133798;27;20459;-79
2024/02/16 10:18:57;;;;;;;7.90;6.03;;;15.40;99.90;;;;;;5137400;27;20504;-79
2024/02/16 10:21:28;;;;;;;6.73;5.90;;;15.40;99.90;;;;;;5137799;27;20536;-77
2024/02/16 10:24:00;;;;;;;7.50;5.97;;;15.40;99.90;;;;;;5137646;27;20471;-77
2024/02/16 10:26:43;;;;;;;6.23;5.63;;;15.40;99.90;;;;;;5140296;27;21116;-78
2024/02/16 10:29:13;;;;;;;5.40;4.77;;;15.50;99.90;;;;;;5137730;27;20452;-79
2024/02/16 10:31:40;;;;;;;6.20;5.33;;;15.50;99.90;;;;;;5137500;27;20463;-77
2024/02/16 10:34:09;;;;;;;7.90;6.60;;;15.50;99.90;;;;;;5134955;27;20464;-77
2024/02/16 10:36:37;;;;;;;6.10;5.60;;;15.60;99.90;;;;;;5137663;27;20471;-77
2024/02/16 10:39:06;;;;;;;5.60;4.70;;;15.60;99.90;;;;;;5137077;27;20460;-77
2024/02/16 10:41:39;;;;;;;7.20;5.80;;;15.70;99.90;;;;;;5137507;27;20452;-79
2024/02/16 10:44:06;;;;;;;5.73;5.23;;;15.80;99.90;;;;;;5137236;27;20829;-79
2024/02/16 10:46:35;;;;;;;6.97;5.50;;;15.80;99.90;;;;;;5137322;27;20482;-79
2024/02/16 10:49:05;;;;;;;6.13;5.47;;;15.80;99.90;;;;;;5136644;27;20467;-77
2024/02/16 10:51:38;;;;;;;6.60;5.50;;;15.90;99.90;;;;;;5137032;27;20471;-77
2024/02/16 10:54:06;;;;;;;5.30;4.80;;;15.90;99.90;;;;;;5127202;27;20463;-77
2024/02/16 10:56:34;;;;;;;8.60;5.43;;;15.80;99.90;;;;;;5137567;27;20527;-79
2024/02/16 10:59:03;;;;;;;6.20;5.60;;;15.80;99.90;;;;;;5136603;27;20468;-79
2024/02/16 11:01:39;;;;;;;8.40;7.60;;;15.80;99.90;;;;;;5136764;27;20459;-79
2024/02/16 11:04:15;;;;;;;7.27;6.60;;;15.80;99.90;;;;;;5136873;27;20463;-79
2024/02/16 11:06:56;;;;;;;6.37;5.60;;;15.80;99.90;;;;;;5136994;27;20466;-77
2024/02/16 11:09:29;;;;;;;6.13;5.53;;;15.90;99.90;;;;;;5135737;27;20464;-77
2024/02/16 11:12:02;;;;;;;6.47;5.60;;;15.90;99.90;;;;;;5136534;27;20551;-79
2024/02/16 11:14:36;;;;;;;7.33;6.33;;;16.00;99.90;;;;;;5136321;27;20951;-79
2024/02/16 11:17:12;;;;;;;6.73;6.03;;;16.00;99.90;;;;;;5136684;27;20473;-77
2024/02/16 11:19:41;;;;;;;5.87;5.37;;;16.10;99.90;;;;;;5135559;27;20531;-77
2024/02/16 11:22:12;;;;;;;8.53;7.13;;;16.10;99.90;;;;;;5125656;27;20878;-77
2024/02/16 11:24:47;;;;;;;7.63;6.60;;;16.10;99.90;;;;;;5124771;27;20455;-77
2024/02/16 11:27:18;;;;;;;6.43;5.90;;;16.20;99.90;;;;;;5136259;27;20512;-79
2024/02/16 11:29:46;;;;;;;6.17;5.57;;;16.10;99.90;;;;;;5135025;27;20763;-79
2024/02/16 11:32:20;;;;;;;6.50;5.80;;;16.10;99.90;;;;;;5136374;27;20471;-79
2024/02/16 11:34:47;;;;;;;6.03;5.50;;;16.20;99.90;;;;;;5135652;27;20534;-79
2024/02/16 11:37:29;;;;;;;6.10;5.50;;;16.20;99.90;;;;;;5136178;27;20487;-79
2024/02/16 11:39:57;;;;;;;5.13;4.63;;;16.20;99.90;;;;;;5132760;27;20842;-79
2024/02/16 11:42:24;;;;;;;6.43;5.80;;;16.20;99.90;;;;;;5136185;27;20538;-79
2024/02/16 11:44:55;;;;;;;7.70;6.27;;;16.20;99.90;;;;;;5125121;27;20483;-79
2024/02/16 11:47:26;;;;;;;5.20;4.70;;;16.20;99.90;;;;;;5135588;27;20470;-77
2024/02/16 11:50:02;;;;;;;7.03;6.00;;;16.20;99.90;;;;;;5135244;27;20471;-77
2024/02/16 11:52:29;;;;;;;5.77;5.27;;;16.40;99.90;;;;;;5135558;27;20482;-79
2024/02/16 11:54:56;;;;;;;5.57;5.03;;;16.40;99.90;;;;;;5135520;27;20798;-77
2024/02/16 11:57:24;;;;;;;6.50;5.90;;;16.40;99.90;;;;;;5136054;27;20456;-77
2024/02/16 11:59:52;;;;;;;4.43;4.03;;;16.50;99.90;;;;;;5124483;27;20471;-77
2024/02/16 12:02:22;;;;;;;5.43;4.90;;;16.60;99.90;;;;;;5134975;27;20532;-77
2024/02/16 12:04:59;;;;;;;10.10;8.23;;;16.60;99.90;;;;;;5135071;27;20984;-77
2024/02/16 12:07:28;;;;;;;5.77;4.57;;;16.70;99.90;;;;;;5136001;27;20477;-80
2024/02/16 12:09:58;;;;;;;5.30;4.47;;;16.70;99.90;;;;;;5134889;27;20471;-80
2024/02/16 12:12:26;;;;;;;4.47;4.07;;;16.80;99.90;;;;;;5135606;27;20975;-80
2024/02/16 12:14:54;;;;;;;4.77;4.37;;;16.90;99.90;;;;;;5135159;27;20778;-80
2024/02/16 12:17:21;;;;;;;5.10;4.60;;;17.00;99.90;;;;;;5135594;27;20482;-79
2024/02/16 12:19:53;;;;;;;5.90;4.90;;;17.00;99.90;;;;;;5135045;27;20466;-79
2024/02/16 12:22:20;;;;;;;5.77;5.10;;;17.10;99.90;;;;;;5135710;27;20538;-79
2024/02/16 12:24:50;;;;;;;17.33;12.13;;;17.10;99.90;;;;;;5134683;27;20463;-79
2024/02/16 12:27:17;;;;;;;6.40;5.60;;;17.20;99.90;;;;;;5135604;27;20459;-79
2024/02/16 12:29:46;;;;;;;5.40;4.90;;;17.20;99.90;;;;;;5125406;27;20503;-77
2024/02/16 12:32:18;;;;;;;4.83;4.33;;;17.30;99.90;;;;;;5135276;27;20452;-77
2024/02/16 12:34:47;;;;;;;5.10;4.60;;;17.40;99.90;;;;;;5134291;27;20521;-78
2024/02/16 12:37:15;;;;;;;4.73;3.97;;;17.50;99.90;;;;;;5135186;27;20483;-77
2024/02/16 12:39:42;;;;;;;6.37;5.60;;;17.50;99.90;;;;;;5134727;27;20463;-77
2024/02/16 12:42:12;;;;;;;4.30;3.90;;;17.50;99.90;;;;;;5134243;27;20448;-77
2024/02/16 12:44:39;;;;;;;10.73;8.37;;;17.50;99.90;;;;;;5135010;27;20475;-77
2024/02/16 12:47:08;;;;;;;5.23;4.43;;;17.60;99.90;;;;;;5133910;27;20551;-77
2024/02/16 12:49:35;;;;;;;5.17;4.50;;;17.60;99.90;;;;;;5134980;27;20456;-77